sensor_id;sensor_type;location;lat;lon;timestamp;P1;durP1;ratioP1;P2;durP2;ratioP2
9413;SDS011;4746;35.664;139.738;2023-02-18T00:01:44;9.33;;;8.37;;
9413;SDS011;4746;35.664;139.738;2023-02-18T00:04:12;9.13;;;7.47;;
9413;SDS011;4746;35.664;139.738;2023-02-18T00:06:40;10.00;;;8.80;;
9413;SDS011;4746;35.664;139.738;2023-02-18T00:09:07;9.27;;;8.27;;
9413;SDS011;4746;35.664;139.738;2023-02-18T00:11:36;10.07;;;9.17;;
9413;SDS011;4746;35.664;139.738;2023-02-18T00:14:06;9.10;;;8.20;;
9413;SDS011;4746;35.664;139.738;2023-02-18T00:16:38;9.30;;;8.17;;
9413;SDS011;4746;35.664;139.738;2023-02-18T00:19:07;9.53;;;8.73;;
9413;SDS011;4746;35.664;139.738;2023-02-18T00:21:39;9.30;;;8.40;;
9413;SDS011;4746;35.664;139.738;2023-02-18T00:24:07;9.90;;;8.57;;
9413;SDS011;4746;35.664;139.738;2023-02-18T00:26:42;9.40;;;8.43;;
9413;SDS011;4746;35.664;139.738;2023-02-18T00:29:11;11.00;;;9.83;;
9413;SDS011;4746;35.664;139.738;2023-02-18T00:31:38;10.43;;;9.53;;
9413;SDS011;4746;35.664;139.738;2023-02-18T00:34:06;11.37;;;9.33;;
9413;SDS011;4746;35.664;139.738;2023-02-18T00:36:36;10.07;;;8.20;;
9413;SDS011;4746;35.664;139.738;2023-02-18T00:39:06;9.87;;;8.87;;
9413;SDS011;4746;35.664;139.738;2023-02-18T00:41:36;8.43;;;7.60;;
9413;SDS011;4746;35.664;139.738;2023-02-18T00:44:05;9.77;;;8.50;;
9413;SDS011;4746;35.664;139.738;2023-02-18T00:46:33;12.43;;;9.07;;
9413;SDS011;4746;35.664;139.738;2023-02-18T00:49:02;8.43;;;7.63;;
9413;SDS011;4746;35.664;139.738;2023-02-18T00:51:30;9.47;;;8.43;;
9413;SDS011;4746;35.664;139.738;2023-02-18T00:53:58;10.67;;;9.23;;
9413;SDS011;4746;35.664;139.738;2023-02-18T00:56:26;11.67;;;8.93;;
9413;SDS011;4746;35.664;139.738;2023-02-18T00:58:54;9.40;;;8.50;;
9413;SDS011;4746;35.664;139.738;2023-02-18T01:01:21;12.13;;;9.27;;
9413;SDS011;4746;35.664;139.738;2023-02-18T01:03:49;10.17;;;9.07;;
9413;SDS011;4746;35.664;139.738;2023-02-18T01:06:17;10.40;;;8.20;;
9413;SDS011;4746;35.664;139.738;2023-02-18T01:08:46;9.63;;;8.17;;
9413;SDS011;4746;35.664;139.738;2023-02-18T01:11:14;10.00;;;8.50;;
9413;SDS011;4746;35.664;139.738;2023-02-18T01:13:42;10.47;;;9.07;;
9413;SDS011;4746;35.664;139.738;2023-02-18T01:16:11;11.93;;;8.93;;
9413;SDS011;4746;35.664;139.738;2023-02-18T01:18:39;14.00;;;9.17;;
9413;SDS011;4746;35.664;139.738;2023-02-18T01:21:07;14.87;;;9.00;;
9413;SDS011;4746;35.664;139.738;2023-02-18T01:23:38;10.23;;;9.20;;
9413;SDS011;4746;35.664;139.738;2023-02-18T01:26:07;13.73;;;9.57;;
9413;SDS011;4746;35.664;139.738;2023-02-18T01:28:36;11.60;;;8.60;;
9413;SDS011;4746;35.664;139.738;2023-02-18T01:31:07;14.17;;;8.73;;
9413;SDS011;4746;35.664;139.738;2023-02-18T01:33:37;10.03;;;9.00;;
9413;SDS011;4746;35.664;139.738;2023-02-18T01:36:06;11.10;;;8.90;;
9413;SDS011;4746;35.664;139.738;2023-02-18T01:38:35;11.53;;;9.70;;
9413;SDS011;4746;35.664;139.738;2023-02-18T01:41:02;11.67;;;9.67;;
9413;SDS011;4746;35.664;139.738;2023-02-18T01:43:31;13.10;;;11.03;;
9413;SDS011;4746;35.664;139.738;2023-02-18T01:53:56;12.97;;;10.57;;
9413;SDS011;4746;35.664;139.738;2023-02-18T01:56:52;15.60;;;14.07;;
9413;SDS011;4746;35.664;139.738;2023-02-18T01:59:38;15.07;;;13.57;;
9413;SDS011;4746;35.664;139.738;2023-02-18T02:02:12;18.80;;;14.73;;
9413;SDS011;4746;35.664;139.738;2023-02-18T02:04:52;15.60;;;14.10;;
9413;SDS011;4746;35.664;139.738;2023-02-18T02:07:21;17.93;;;14.77;;
9413;SDS011;4746;35.664;139.738;2023-02-18T02:09:51;17.73;;;15.93;;
9413;SDS011;4746;35.664;139.738;2023-02-18T02:18:12;18.47;;;15.70;;
9413;SDS011;4746;35.664;139.738;2023-02-18T02:40:54;17.97;;;15.63;;
9413;SDS011;4746;35.664;139.738;2023-02-18T02:46:56;18.10;;;14.83;;
9413;SDS011;4746;35.664;139.738;2023-02-18T02:50:03;23.50;;;15.97;;
9413;SDS011;4746;35.664;139.738;2023-02-18T02:52:45;17.50;;;14.63;;
9413;SDS011;4746;35.664;139.738;2023-02-18T02:55:22;16.67;;;14.47;;
9413;SDS011;4746;35.664;139.738;2023-02-18T02:57:53;17.10;;;14.07;;
9413;SDS011;4746;35.664;139.738;2023-02-18T03:00:23;14.67;;;13.17;;
9413;SDS011;4746;35.664;139.738;2023-02-18T03:06:34;13.83;;;12.53;;
9413;SDS011;4746;35.664;139.738;2023-02-18T03:09:42;14.23;;;12.73;;
9413;SDS011;4746;35.664;139.738;2023-02-18T03:13:15;15.30;;;13.67;;
9413;SDS011;4746;35.664;139.738;2023-02-18T03:16:13;16.93;;;15.23;;
9413;SDS011;4746;35.664;139.738;2023-02-18T03:21:51;18.20;;;15.37;;
9413;SDS011;4746;35.664;139.738;2023-02-18T03:24:47;15.60;;;14.13;;
9413;SDS011;4746;35.664;139.738;2023-02-18T03:27:26;16.70;;;14.93;;
9413;SDS011;4746;35.664;139.738;2023-02-18T03:30:10;18.00;;;14.67;;
9413;SDS011;4746;35.664;139.738;2023-02-18T03:32:45;15.83;;;14.10;;
9413;SDS011;4746;35.664;139.738;2023-02-18T03:35:18;16.43;;;14.77;;
9413;SDS011;4746;35.664;139.738;2023-02-18T03:37:49;15.23;;;13.77;;
9413;SDS011;4746;35.664;139.738;2023-02-18T03:40:27;17.03;;;15.23;;
9413;SDS011;4746;35.664;139.738;2023-02-18T03:42:57;14.33;;;13.00;;
9413;SDS011;4746;35.664;139.738;2023-02-18T03:45:25;13.97;;;12.47;;
9413;SDS011;4746;35.664;139.738;2023-02-18T03:47:53;14.17;;;12.87;;
9413;SDS011;4746;35.664;139.738;2023-02-18T03:50:21;15.07;;;12.80;;
9413;SDS011;4746;35.664;139.738;2023-02-18T03:52:49;12.43;;;11.13;;
9413;SDS011;4746;35.664;139.738;2023-02-18T03:55:17;11.97;;;10.07;;
9413;SDS011;4746;35.664;139.738;2023-02-18T03:57:44;10.53;;;9.43;;
9413;SDS011;4746;35.664;139.738;2023-02-18T04:00:12;10.23;;;8.87;;
9413;SDS011;4746;35.664;139.738;2023-02-18T04:02:40;9.57;;;8.57;;
9413;SDS011;4746;35.664;139.738;2023-02-18T04:05:08;10.00;;;9.00;;
9413;SDS011;4746;35.664;139.738;2023-02-18T04:07:36;9.90;;;9.07;;
9413;SDS011;4746;35.664;139.738;2023-02-18T04:10:04;9.07;;;8.17;;
9413;SDS011;4746;35.664;139.738;2023-02-18T04:12:33;8.47;;;7.07;;
9413;SDS011;4746;35.664;139.738;2023-02-18T04:15:00;9.27;;;7.38;;
9413;SDS011;4746;35.664;139.738;2023-02-18T04:17:31;8.32;;;7.13;;
9413;SDS011;4746;35.664;139.738;2023-02-18T04:20:02;9.05;;;6.90;;
9413;SDS011;4746;35.664;139.738;2023-02-18T04:22:32;9.57;;;7.18;;
9413;SDS011;4746;35.664;139.738;2023-02-18T04:25:00;10.13;;;7.68;;
9413;SDS011;4746;35.664;139.738;2023-02-18T04:27:27;7.75;;;7.07;;
9413;SDS011;4746;35.664;139.738;2023-02-18T04:29:55;8.32;;;6.95;;
9413;SDS011;4746;35.664;139.738;2023-02-18T04:32:22;11.45;;;8.15;;
9413;SDS011;4746;35.664;139.738;2023-02-18T04:34:50;10.27;;;8.43;;
9413;SDS011;4746;35.664;139.738;2023-02-18T04:37:18;13.30;;;9.15;;
9413;SDS011;4746;35.664;139.738;2023-02-18T04:39:45;12.35;;;9.93;;
9413;SDS011;4746;35.664;139.738;2023-02-18T04:42:13;11.70;;;10.00;;
9413;SDS011;4746;35.664;139.738;2023-02-18T04:44:40;11.25;;;8.25;;
9413;SDS011;4746;35.664;139.738;2023-02-18T04:47:08;12.55;;;8.43;;
9413;SDS011;4746;35.664;139.738;2023-02-18T04:49:36;8.60;;;7.07;;
9413;SDS011;4746;35.664;139.738;2023-02-18T04:52:04;6.40;;;5.90;;
9413;SDS011;4746;35.664;139.738;2023-02-18T04:54:32;7.53;;;6.80;;
9413;SDS011;4746;35.664;139.738;2023-02-18T04:56:59;9.18;;;7.05;;
9413;SDS011;4746;35.664;139.738;2023-02-18T04:59:27;12.95;;;7.57;;
9413;SDS011;4746;35.664;139.738;2023-02-18T05:01:56;8.43;;;7.40;;
9413;SDS011;4746;35.664;139.738;2023-02-18T05:04:24;9.18;;;8.20;;
9413;SDS011;4746;35.664;139.738;2023-02-18T05:06:51;9.05;;;7.55;;
9413;SDS011;4746;35.664;139.738;2023-02-18T05:09:19;9.75;;;8.35;;
9413;SDS011;4746;35.664;139.738;2023-02-18T05:11:47;11.68;;;8.50;;
9413;SDS011;4746;35.664;139.738;2023-02-18T05:14:15;9.85;;;8.85;;
9413;SDS011;4746;35.664;139.738;2023-02-18T05:16:43;13.77;;;9.55;;
9413;SDS011;4746;35.664;139.738;2023-02-18T05:19:15;11.77;;;9.52;;
9413;SDS011;4746;35.664;139.738;2023-02-18T05:21:42;13.20;;;9.18;;
9413;SDS011;4746;35.664;139.738;2023-02-18T05:24:10;12.68;;;9.95;;
9413;SDS011;4746;35.664;139.738;2023-02-18T05:26:38;11.32;;;10.23;;
9413;SDS011;4746;35.664;139.738;2023-02-18T05:29:05;12.40;;;11.20;;
9413;SDS011;4746;35.664;139.738;2023-02-18T05:31:33;11.52;;;10.32;;
9413;SDS011;4746;35.664;139.738;2023-02-18T05:34:03;12.70;;;10.40;;
9413;SDS011;4746;35.664;139.738;2023-02-18T05:36:30;11.95;;;10.77;;
9413;SDS011;4746;35.664;139.738;2023-02-18T05:38:58;12.13;;;10.95;;
9413;SDS011;4746;35.664;139.738;2023-02-18T05:41:26;16.35;;;12.27;;
9413;SDS011;4746;35.664;139.738;2023-02-18T05:43:53;12.70;;;11.52;;
9413;SDS011;4746;35.664;139.738;2023-02-18T05:46:39;14.80;;;11.52;;
9413;SDS011;4746;35.664;139.738;2023-02-18T05:49:07;12.80;;;11.48;;
9413;SDS011;4746;35.664;139.738;2023-02-18T05:51:34;12.32;;;11.23;;
9413;SDS011;4746;35.664;139.738;2023-02-18T05:54:02;12.23;;;10.80;;
9413;SDS011;4746;35.664;139.738;2023-02-18T05:56:30;10.68;;;9.15;;
9413;SDS011;4746;35.664;139.738;2023-02-18T05:58:57;11.35;;;9.93;;
9413;SDS011;4746;35.664;139.738;2023-02-18T06:01:25;11.27;;;10.18;;
9413;SDS011;4746;35.664;139.738;2023-02-18T06:03:53;10.70;;;9.65;;
9413;SDS011;4746;35.664;139.738;2023-02-18T06:06:20;9.20;;;8.50;;
9413;SDS011;4746;35.664;139.738;2023-02-18T06:08:48;12.07;;;10.75;;
9413;SDS011;4746;35.664;139.738;2023-02-18T06:11:15;13.50;;;12.10;;
9413;SDS011;4746;35.664;139.738;2023-02-18T06:13:43;13.48;;;11.40;;
9413;SDS011;4746;35.664;139.738;2023-02-18T06:16:10;16.45;;;12.77;;
9413;SDS011;4746;35.664;139.738;2023-02-18T06:18:38;14.23;;;11.75;;
9413;SDS011;4746;35.664;139.738;2023-02-18T06:21:06;13.95;;;12.32;;
9413;SDS011;4746;35.664;139.738;2023-02-18T06:23:34;18.00;;;12.95;;
9413;SDS011;4746;35.664;139.738;2023-02-18T06:26:02;15.80;;;14.23;;
9413;SDS011;4746;35.664;139.738;2023-02-18T06:28:30;15.40;;;13.82;;
9413;SDS011;4746;35.664;139.738;2023-02-18T06:30:58;16.48;;;14.30;;
9413;SDS011;4746;35.664;139.738;2023-02-18T06:33:25;15.15;;;13.75;;
9413;SDS011;4746;35.664;139.738;2023-02-18T06:35:54;15.10;;;13.65;;
9413;SDS011;4746;35.664;139.738;2023-02-18T06:38:24;17.58;;;13.50;;
9413;SDS011;4746;35.664;139.738;2023-02-18T06:40:54;15.70;;;14.27;;
9413;SDS011;4746;35.664;139.738;2023-02-18T06:43:21;15.45;;;13.98;;
9413;SDS011;4746;35.664;139.738;2023-02-18T06:45:49;15.25;;;13.80;;
9413;SDS011;4746;35.664;139.738;2023-02-18T06:48:17;16.33;;;14.68;;
9413;SDS011;4746;35.664;139.738;2023-02-18T06:50:47;15.05;;;13.55;;
9413;SDS011;4746;35.664;139.738;2023-02-18T06:53:15;16.70;;;14.23;;
9413;SDS011;4746;35.664;139.738;2023-02-18T06:55:42;15.23;;;13.63;;
9413;SDS011;4746;35.664;139.738;2023-02-18T06:58:11;14.32;;;13.10;;
9413;SDS011;4746;35.664;139.738;2023-02-18T07:00:40;15.15;;;13.65;;
9413;SDS011;4746;35.664;139.738;2023-02-18T07:03:09;16.90;;;14.00;;
9413;SDS011;4746;35.664;139.738;2023-02-18T07:05:40;14.50;;;12.70;;
9413;SDS011;4746;35.664;139.738;2023-02-18T07:08:08;14.48;;;13.13;;
9413;SDS011;4746;35.664;139.738;2023-02-18T07:10:36;16.13;;;14.50;;
9413;SDS011;4746;35.664;139.738;2023-02-18T07:13:04;14.50;;;12.77;;
9413;SDS011;4746;35.664;139.738;2023-02-18T07:15:32;17.58;;;13.68;;
9413;SDS011;4746;35.664;139.738;2023-02-18T07:18:00;14.30;;;12.75;;
9413;SDS011;4746;35.664;139.738;2023-02-18T07:20:28;15.27;;;13.63;;
9413;SDS011;4746;35.664;139.738;2023-02-18T07:22:55;14.75;;;13.20;;
9413;SDS011;4746;35.664;139.738;2023-02-18T07:25:23;15.27;;;13.88;;
9413;SDS011;4746;35.664;139.738;2023-02-18T07:27:51;14.65;;;12.32;;
9413;SDS011;4746;35.664;139.738;2023-02-18T07:30:19;14.80;;;13.00;;
9413;SDS011;4746;35.664;139.738;2023-02-18T07:32:47;15.15;;;13.65;;
9413;SDS011;4746;35.664;139.738;2023-02-18T07:35:15;17.02;;;12.52;;
9413;SDS011;4746;35.664;139.738;2023-02-18T07:37:46;14.05;;;12.65;;
9413;SDS011;4746;35.664;139.738;2023-02-18T07:40:16;15.23;;;13.63;;
9413;SDS011;4746;35.664;139.738;2023-02-18T07:42:46;17.77;;;14.90;;
9413;SDS011;4746;35.664;139.738;2023-02-18T07:45:14;19.35;;;13.93;;
9413;SDS011;4746;35.664;139.738;2023-02-18T07:47:42;14.77;;;13.35;;
9413;SDS011;4746;35.664;139.738;2023-02-18T07:50:10;15.13;;;13.77;;
9413;SDS011;4746;35.664;139.738;2023-02-18T07:52:37;14.48;;;13.07;;
9413;SDS011;4746;35.664;139.738;2023-02-18T07:55:05;16.48;;;14.15;;
9413;SDS011;4746;35.664;139.738;2023-02-18T07:57:33;14.52;;;13.02;;
9413;SDS011;4746;35.664;139.738;2023-02-18T08:00:21;16.13;;;14.25;;
9413;SDS011;4746;35.664;139.738;2023-02-18T08:02:49;14.55;;;13.02;;
9413;SDS011;4746;35.664;139.738;2023-02-18T08:05:17;16.33;;;14.63;;
9413;SDS011;4746;35.664;139.738;2023-02-18T08:07:44;14.75;;;13.35;;
9413;SDS011;4746;35.664;139.738;2023-02-18T08:10:12;14.55;;;13.10;;
9413;SDS011;4746;35.664;139.738;2023-02-18T08:12:39;16.38;;;14.48;;
9413;SDS011;4746;35.664;139.738;2023-02-18T08:15:07;16.70;;;13.63;;
9413;SDS011;4746;35.664;139.738;2023-02-18T08:17:35;15.70;;;14.10;;
9413;SDS011;4746;35.664;139.738;2023-02-18T08:20:02;17.93;;;16.03;;
9413;SDS011;4746;35.664;139.738;2023-02-18T08:22:31;16.77;;;15.10;;
9413;SDS011;4746;35.664;139.738;2023-02-18T08:24:58;16.63;;;15.03;;
9413;SDS011;4746;35.664;139.738;2023-02-18T08:27:26;17.83;;;16.03;;
9413;SDS011;4746;35.664;139.738;2023-02-18T08:29:53;18.60;;;16.63;;
9413;SDS011;4746;35.664;139.738;2023-02-18T08:32:21;19.33;;;17.33;;
9413;SDS011;4746;35.664;139.738;2023-02-18T08:34:53;18.47;;;16.63;;
9413;SDS011;4746;35.664;139.738;2023-02-18T08:37:21;19.17;;;17.27;;
9413;SDS011;4746;35.664;139.738;2023-02-18T08:39:50;16.93;;;15.30;;
9413;SDS011;4746;35.664;139.738;2023-02-18T08:42:17;18.03;;;16.13;;
9413;SDS011;4746;35.664;139.738;2023-02-18T08:44:45;18.87;;;16.27;;
9413;SDS011;4746;35.664;139.738;2023-02-18T08:47:12;17.33;;;15.73;;
9413;SDS011;4746;35.664;139.738;2023-02-18T08:49:40;17.50;;;15.70;;
9413;SDS011;4746;35.664;139.738;2023-02-18T08:52:08;17.97;;;16.13;;
9413;SDS011;4746;35.664;139.738;2023-02-18T08:54:36;19.40;;;16.50;;
9413;SDS011;4746;35.664;139.738;2023-02-18T08:57:04;18.43;;;16.27;;
9413;SDS011;4746;35.664;139.738;2023-02-18T08:59:33;17.10;;;15.20;;
9413;SDS011;4746;35.664;139.738;2023-02-18T09:02:01;17.63;;;15.80;;
9413;SDS011;4746;35.664;139.738;2023-02-18T09:04:30;16.70;;;14.87;;
9413;SDS011;4746;35.664;139.738;2023-02-18T09:06:57;17.73;;;15.47;;
9413;SDS011;4746;35.664;139.738;2023-02-18T09:09:25;16.70;;;15.07;;
9413;SDS011;4746;35.664;139.738;2023-02-18T09:11:52;19.60;;;15.17;;
9413;SDS011;4746;35.664;139.738;2023-02-18T09:14:20;16.27;;;14.80;;
9413;SDS011;4746;35.664;139.738;2023-02-18T09:16:48;15.23;;;13.73;;
9413;SDS011;4746;35.664;139.738;2023-02-18T09:19:16;15.27;;;13.77;;
9413;SDS011;4746;35.664;139.738;2023-02-18T09:21:45;16.63;;;14.17;;
9413;SDS011;4746;35.664;139.738;2023-02-18T09:24:13;16.37;;;14.83;;
9413;SDS011;4746;35.664;139.738;2023-02-18T09:26:42;17.37;;;15.67;;
9413;SDS011;4746;35.664;139.738;2023-02-18T09:29:10;16.83;;;15.23;;
9413;SDS011;4746;35.664;139.738;2023-02-18T09:31:38;17.07;;;15.37;;
9413;SDS011;4746;35.664;139.738;2023-02-18T09:34:05;15.67;;;14.07;;
9413;SDS011;4746;35.664;139.738;2023-02-18T09:36:33;16.90;;;15.10;;
9413;SDS011;4746;35.664;139.738;2023-02-18T09:39:01;18.50;;;15.37;;
9413;SDS011;4746;35.664;139.738;2023-02-18T09:41:47;17.80;;;15.23;;
9413;SDS011;4746;35.664;139.738;2023-02-18T09:44:25;18.53;;;15.40;;
9413;SDS011;4746;35.664;139.738;2023-02-18T09:47:29;18.50;;;15.67;;
9413;SDS011;4746;35.664;139.738;2023-02-18T09:52:43;18.47;;;16.67;;
9413;SDS011;4746;35.664;139.738;2023-02-18T09:58:03;16.07;;;14.27;;
9413;SDS011;4746;35.664;139.738;2023-02-18T10:00:41;15.77;;;14.17;;
9413;SDS011;4746;35.664;139.738;2023-02-18T10:03:17;15.27;;;13.90;;
9413;SDS011;4746;35.664;139.738;2023-02-18T10:05:55;16.83;;;13.97;;
9413;SDS011;4746;35.664;139.738;2023-02-18T10:08:45;16.23;;;14.63;;
9413;SDS011;4746;35.664;139.738;2023-02-18T10:11:39;16.70;;;14.70;;
9413;SDS011;4746;35.664;139.738;2023-02-18T10:14:11;17.30;;;15.53;;
9413;SDS011;4746;35.664;139.738;2023-02-18T10:16:41;17.77;;;15.97;;
9413;SDS011;4746;35.664;139.738;2023-02-18T10:22:00;17.00;;;15.40;;
9413;SDS011;4746;35.664;139.738;2023-02-18T10:24:53;19.17;;;17.17;;
9413;SDS011;4746;35.664;139.738;2023-02-18T10:30:17;18.73;;;16.93;;
9413;SDS011;4746;35.664;139.738;2023-02-18T10:33:30;21.53;;;17.73;;
9413;SDS011;4746;35.664;139.738;2023-02-18T10:41:52;19.43;;;17.73;;
9413;SDS011;4746;35.664;139.738;2023-02-18T10:50:35;19.67;;;17.67;;
9413;SDS011;4746;35.664;139.738;2023-02-18T10:53:17;20.90;;;18.87;;
9413;SDS011;4746;35.664;139.738;2023-02-18T10:56:05;23.40;;;20.50;;
9413;SDS011;4746;35.664;139.738;2023-02-18T10:58:41;21.17;;;18.90;;
9413;SDS011;4746;35.664;139.738;2023-02-18T11:01:36;20.10;;;18.27;;
9413;SDS011;4746;35.664;139.738;2023-02-18T11:04:16;19.87;;;17.97;;
9413;SDS011;4746;35.664;139.738;2023-02-18T11:06:47;19.27;;;17.43;;
9413;SDS011;4746;35.664;139.738;2023-02-18T11:09:23;19.53;;;17.53;;
9413;SDS011;4746;35.664;139.738;2023-02-18T11:12:56;20.93;;;18.83;;
9413;SDS011;4746;35.664;139.738;2023-02-18T11:17:50;23.93;;;21.40;;
9413;SDS011;4746;35.664;139.738;2023-02-18T11:25:51;21.60;;;19.47;;
9413;SDS011;4746;35.664;139.738;2023-02-18T11:29:05;23.57;;;19.17;;
9413;SDS011;4746;35.664;139.738;2023-02-18T11:31:25;20.70;;;17.87;;
9413;SDS011;4746;35.664;139.738;2023-02-18T11:34:12;22.47;;;19.17;;
9413;SDS011;4746;35.664;139.738;2023-02-18T11:36:53;20.97;;;18.87;;
9413;SDS011;4746;35.664;139.738;2023-02-18T11:39:32;22.87;;;20.60;;
9413;SDS011;4746;35.664;139.738;2023-02-18T11:42:04;23.40;;;20.90;;
9413;SDS011;4746;35.664;139.738;2023-02-18T11:44:37;25.93;;;21.97;;
9413;SDS011;4746;35.664;139.738;2023-02-18T11:47:26;23.00;;;20.63;;
9413;SDS011;4746;35.664;139.738;2023-02-18T11:52:43;25.67;;;22.80;;
9413;SDS011;4746;35.664;139.738;2023-02-18T11:55:16;22.43;;;20.40;;
9413;SDS011;4746;35.664;139.738;2023-02-18T11:58:00;25.23;;;22.73;;
9413;SDS011;4746;35.664;139.738;2023-02-18T12:00:40;25.80;;;22.00;;
9413;SDS011;4746;35.664;139.738;2023-02-18T12:06:03;25.67;;;23.07;;
9413;SDS011;4746;35.664;139.738;2023-02-18T12:09:30;24.97;;;22.47;;
9413;SDS011;4746;35.664;139.738;2023-02-18T12:12:00;25.57;;;23.10;;
9413;SDS011;4746;35.664;139.738;2023-02-18T12:14:40;25.47;;;22.40;;
9413;SDS011;4746;35.664;139.738;2023-02-18T12:26:22;25.60;;;21.60;;
9413;SDS011;4746;35.664;139.738;2023-02-18T12:34:57;20.63;;;18.53;;
9413;SDS011;4746;35.664;139.738;2023-02-18T12:44:04;21.90;;;19.77;;
9413;SDS011;4746;35.664;139.738;2023-02-18T12:50:01;23.80;;;21.27;;
9413;SDS011;4746;35.664;139.738;2023-02-18T12:56:06;28.67;;;25.87;;
9413;SDS011;4746;35.664;139.738;2023-02-18T13:16:44;31.53;;;28.40;;
9413;SDS011;4746;35.664;139.738;2023-02-18T13:21:57;30.70;;;27.57;;
9413;SDS011;4746;35.664;139.738;2023-02-18T13:24:35;32.50;;;27.93;;
9413;SDS011;4746;35.664;139.738;2023-02-18T13:27:16;31.07;;;27.77;;
9413;SDS011;4746;35.664;139.738;2023-02-18T13:35:53;33.20;;;30.00;;
9413;SDS011;4746;35.664;139.738;2023-02-18T13:38:55;34.50;;;31.23;;
9413;SDS011;4746;35.664;139.738;2023-02-18T13:41:44;34.77;;;31.27;;
9413;SDS011;4746;35.664;139.738;2023-02-18T13:49:31;39.67;;;35.67;;
9413;SDS011;4746;35.664;139.738;2023-02-18T13:52:03;39.60;;;35.70;;
9413;SDS011;4746;35.664;139.738;2023-02-18T13:57:15;39.30;;;35.30;;
9413;SDS011;4746;35.664;139.738;2023-02-18T13:59:53;39.77;;;35.93;;
9413;SDS011;4746;35.664;139.738;2023-02-18T14:02:33;40.30;;;36.13;;
9413;SDS011;4746;35.664;139.738;2023-02-18T14:07:49;41.37;;;37.13;;
9413;SDS011;4746;35.664;139.738;2023-02-18T14:13:42;39.03;;;34.90;;
9413;SDS011;4746;35.664;139.738;2023-02-18T14:16:26;38.67;;;34.90;;
9413;SDS011;4746;35.664;139.738;2023-02-18T14:19:41;39.23;;;34.30;;
9413;SDS011;4746;35.664;139.738;2023-02-18T14:27:38;34.13;;;30.53;;
9413;SDS011;4746;35.664;139.738;2023-02-18T14:32:48;32.27;;;29.00;;
9413;SDS011;4746;35.664;139.738;2023-02-18T14:35:45;30.27;;;27.03;;
9413;SDS011;4746;35.664;139.738;2023-02-18T14:38:54;30.10;;;27.03;;
9413;SDS011;4746;35.664;139.738;2023-02-18T14:42:15;30.57;;;27.30;;
9413;SDS011;4746;35.664;139.738;2023-02-18T14:44:50;29.20;;;26.13;;
9413;SDS011;4746;35.664;139.738;2023-02-18T14:50:36;29.70;;;26.57;;
9413;SDS011;4746;35.664;139.738;2023-02-18T14:53:19;28.07;;;25.33;;
9413;SDS011;4746;35.664;139.738;2023-02-18T14:55:50;29.57;;;26.47;;
9413;SDS011;4746;35.664;139.738;2023-02-18T15:01:06;31.07;;;27.87;;
9413;SDS011;4746;35.664;139.738;2023-02-18T15:03:46;30.23;;;27.03;;
9413;SDS011;4746;35.664;139.738;2023-02-18T15:06:32;30.43;;;27.00;;
9413;SDS011;4746;35.664;139.738;2023-02-18T15:09:14;31.40;;;28.17;;
9413;SDS011;4746;35.664;139.738;2023-02-18T15:11:48;30.70;;;27.53;;
9413;SDS011;4746;35.664;139.738;2023-02-18T15:14:36;29.53;;;26.57;;
9413;SDS011;4746;35.664;139.738;2023-02-18T15:17:11;29.30;;;26.37;;
9413;SDS011;4746;35.664;139.738;2023-02-18T15:19:50;30.73;;;27.63;;
9413;SDS011;4746;35.664;139.738;2023-02-18T15:22:25;31.77;;;28.37;;
9413;SDS011;4746;35.664;139.738;2023-02-18T15:24:59;32.30;;;28.83;;
9413;SDS011;4746;35.664;139.738;2023-02-18T15:27:30;32.60;;;29.40;;
9413;SDS011;4746;35.664;139.738;2023-02-18T15:30:17;31.57;;;28.30;;
9413;SDS011;4746;35.664;139.738;2023-02-18T15:32:58;30.97;;;27.67;;
9413;SDS011;4746;35.664;139.738;2023-02-18T15:35:28;34.20;;;28.27;;
9413;SDS011;4746;35.664;139.738;2023-02-18T15:37:58;34.43;;;30.90;;
9413;SDS011;4746;35.664;139.738;2023-02-18T15:40:32;30.73;;;27.73;;
9413;SDS011;4746;35.664;139.738;2023-02-18T15:43:05;31.97;;;28.73;;
9413;SDS011;4746;35.664;139.738;2023-02-18T15:48:05;30.87;;;27.70;;
9413;SDS011;4746;35.664;139.738;2023-02-18T15:50:57;28.40;;;25.40;;
9413;SDS011;4746;35.664;139.738;2023-02-18T15:53:31;26.43;;;23.73;;
9413;SDS011;4746;35.664;139.738;2023-02-18T15:56:13;29.23;;;26.20;;
9413;SDS011;4746;35.664;139.738;2023-02-18T15:59:28;29.20;;;26.20;;
9413;SDS011;4746;35.664;139.738;2023-02-18T16:04:44;27.87;;;25.03;;
9413;SDS011;4746;35.664;139.738;2023-02-18T16:07:26;26.33;;;23.83;;
9413;SDS011;4746;35.664;139.738;2023-02-18T16:10:13;27.37;;;24.53;;
9413;SDS011;4746;35.664;139.738;2023-02-18T16:13:01;28.07;;;25.27;;
9413;SDS011;4746;35.664;139.738;2023-02-18T16:15:40;25.60;;;22.77;;
9413;SDS011;4746;35.664;139.738;2023-02-18T16:18:55;26.70;;;24.07;;
9413;SDS011;4746;35.664;139.738;2023-02-18T16:24:20;26.13;;;23.37;;
9413;SDS011;4746;35.664;139.738;2023-02-18T16:26:59;24.30;;;21.87;;
9413;SDS011;4746;35.664;139.738;2023-02-18T16:29:49;25.13;;;22.33;;
9413;SDS011;4746;35.664;139.738;2023-02-18T16:32:17;25.83;;;23.13;;
9413;SDS011;4746;35.664;139.738;2023-02-18T16:34:46;26.53;;;23.80;;
9413;SDS011;4746;35.664;139.738;2023-02-18T16:37:14;26.70;;;23.07;;
9413;SDS011;4746;35.664;139.738;2023-02-18T16:40:00;26.00;;;23.07;;
9413;SDS011;4746;35.664;139.738;2023-02-18T16:42:27;27.57;;;24.07;;
9413;SDS011;4746;35.664;139.738;2023-02-18T16:44:55;24.83;;;22.63;;
9413;SDS011;4746;35.664;139.738;2023-02-18T16:47:22;24.27;;;21.90;;
9413;SDS011;4746;35.664;139.738;2023-02-18T16:49:50;24.80;;;22.30;;
9413;SDS011;4746;35.664;139.738;2023-02-18T16:52:19;26.93;;;24.17;;
9413;SDS011;4746;35.664;139.738;2023-02-18T16:54:47;25.30;;;22.70;;
9413;SDS011;4746;35.664;139.738;2023-02-18T16:57:14;25.03;;;22.43;;
9413;SDS011;4746;35.664;139.738;2023-02-18T16:59:42;24.80;;;21.77;;
9413;SDS011;4746;35.664;139.738;2023-02-18T17:02:19;23.17;;;20.77;;
9413;SDS011;4746;35.664;139.738;2023-02-18T17:04:48;23.50;;;20.17;;
9413;SDS011;4746;35.664;139.738;2023-02-18T17:07:21;24.50;;;19.43;;
9413;SDS011;4746;35.664;139.738;2023-02-18T17:09:51;21.90;;;19.63;;
9413;SDS011;4746;35.664;139.738;2023-02-18T17:12:19;20.57;;;18.47;;
9413;SDS011;4746;35.664;139.738;2023-02-18T17:14:47;21.10;;;18.90;;
9413;SDS011;4746;35.664;139.738;2023-02-18T17:17:15;20.57;;;18.50;;
9413;SDS011;4746;35.664;139.738;2023-02-18T17:19:47;20.60;;;18.40;;
9413;SDS011;4746;35.664;139.738;2023-02-18T17:22:14;18.73;;;16.73;;
9413;SDS011;4746;35.664;139.738;2023-02-18T17:24:42;21.47;;;18.93;;
9413;SDS011;4746;35.664;139.738;2023-02-18T17:27:10;20.43;;;18.43;;
9413;SDS011;4746;35.664;139.738;2023-02-18T17:29:38;20.03;;;17.57;;
9413;SDS011;4746;35.664;139.738;2023-02-18T17:32:06;21.47;;;19.10;;
9413;SDS011;4746;35.664;139.738;2023-02-18T17:34:34;20.23;;;18.07;;
9413;SDS011;4746;35.664;139.738;2023-02-18T17:37:05;21.93;;;18.97;;
9413;SDS011;4746;35.664;139.738;2023-02-18T17:39:38;21.87;;;17.07;;
9413;SDS011;4746;35.664;139.738;2023-02-18T17:42:08;19.50;;;17.53;;
9413;SDS011;4746;35.664;139.738;2023-02-18T17:44:37;20.07;;;17.77;;
9413;SDS011;4746;35.664;139.738;2023-02-18T17:47:05;20.13;;;17.67;;
9413;SDS011;4746;35.664;139.738;2023-02-18T17:49:33;19.77;;;17.20;;
9413;SDS011;4746;35.664;139.738;2023-02-18T17:52:00;19.97;;;17.97;;
9413;SDS011;4746;35.664;139.738;2023-02-18T17:54:29;20.93;;;18.60;;